createdAt,value
2023-03-24T00:00:28.278Z,11.78
2023-03-24T00:02:56.644Z,11.63
2023-03-24T00:05:24.245Z,11.62
2023-03-24T00:07:55.081Z,11.73
2023-03-24T00:10:23.416Z,11.55
2023-03-24T00:12:52.628Z,11.61
2023-03-24T00:15:21.480Z,11.32
2023-03-24T00:17:52.854Z,11.28
2023-03-24T00:20:22.241Z,11.44
2023-03-24T00:22:57.103Z,11.26
2023-03-24T00:25:33.866Z,11.13
2023-03-24T00:28:01.444Z,11.09
2023-03-24T00:30:28.942Z,10.92
2023-03-24T00:32:59.025Z,10.94
2023-03-24T00:35:26.663Z,11.16
2023-03-24T00:37:54.267Z,11.19
2023-03-24T00:40:22.662Z,11.18
2023-03-24T00:42:51.003Z,11.21
2023-03-24T00:45:22.932Z,11.16
2023-03-24T00:47:53.998Z,11.26
2023-03-24T00:50:26.955Z,11.29
2023-03-24T00:52:55.391Z,11.13
2023-03-24T00:55:23.241Z,11.19
2023-03-24T00:57:51.613Z,11.14
2023-03-24T01:00:25.058Z,11.23
2023-03-24T01:02:56.371Z,11.26
2023-03-24T01:05:27.921Z,11.27
2023-03-24T01:08:03.017Z,11.25
2023-03-24T01:10:34.137Z,11.38
2023-03-24T01:13:02.217Z,11.56
2023-03-24T01:15:39.355Z,11.39
2023-03-24T01:18:09.727Z,11.25
2023-03-24T01:20:37.201Z,11.30
2023-03-24T01:23:05.835Z,11.55
2023-03-24T01:25:35.979Z,11.47
2023-03-24T01:28:03.770Z,11.35
2023-03-24T01:30:31.674Z,11.40
2023-03-24T01:32:59.328Z,11.34
2023-03-24T01:35:29.333Z,11.76
2023-03-24T01:37:57.988Z,11.69
2023-03-24T01:40:31.250Z,11.88
2023-03-24T01:42:59.932Z,11.85
2023-03-24T01:45:39.956Z,11.80
2023-03-24T01:48:11.267Z,11.89
2023-03-24T01:50:39.114Z,11.83
2023-03-24T01:53:07.228Z,11.84
2023-03-24T01:55:34.630Z,11.86
2023-03-24T01:58:04.017Z,11.84
2023-03-24T02:00:46.340Z,11.70
2023-03-24T02:03:38.718Z,11.57
2023-03-24T02:06:06.883Z,11.84
2023-03-24T02:08:56.558Z,12.24
2023-03-24T02:11:27.423Z,12.30
2023-03-24T02:13:58.858Z,12.21
2023-03-24T02:16:32.121Z,12.17
2023-03-24T02:19:02.618Z,12.07
2023-03-24T02:22:01.476Z,11.81
2023-03-24T02:24:59.777Z,11.60
2023-03-24T02:27:47.417Z,11.68
2023-03-24T02:30:23.964Z,11.63
2023-03-24T02:33:53.051Z,11.62
2023-03-24T02:36:51.255Z,11.52
2023-03-24T02:39:33.549Z,11.42
2023-03-24T02:42:24.225Z,11.42
2023-03-24T02:45:11.529Z,11.49
2023-03-24T02:47:41.854Z,11.46
2023-03-24T02:50:31.802Z,11.37
2023-03-24T02:53:13.398Z,11.43
2023-03-24T02:56:21.185Z,11.32
2023-03-24T02:58:58.673Z,11.33
2023-03-24T03:01:32.425Z,11.52
2023-03-24T03:04:16.136Z,11.46
2023-03-24T03:06:48.253Z,11.39
2023-03-24T03:09:18.476Z,11.38
2023-03-24T03:11:49.725Z,11.61
2023-03-24T03:14:41.729Z,11.60
2023-03-24T03:17:21.254Z,11.82
2023-03-24T03:19:52.690Z,11.75
2023-03-24T03:22:28.100Z,11.56
2023-03-24T03:24:56.844Z,11.63
2023-03-24T03:27:31.324Z,11.76
2023-03-24T03:30:04.097Z,11.70
2023-03-24T03:32:34.824Z,11.83
2023-03-24T03:35:10.274Z,11.81
2023-03-24T03:38:00.178Z,12.05
2023-03-24T03:40:48.563Z,12.17
2023-03-24T03:43:20.010Z,12.30
2023-03-24T03:45:47.963Z,12.53
2023-03-24T03:48:17.410Z,12.50
2023-03-24T03:50:45.979Z,12.51
2023-03-24T03:53:16.348Z,12.52
2023-03-24T03:55:44.276Z,12.58
2023-03-24T03:58:12.183Z,12.54
2023-03-24T04:00:55.893Z,12.33
2023-03-24T04:04:00.721Z,12.69
2023-03-24T04:06:59.897Z,12.91
2023-03-24T04:09:58.595Z,12.79
2023-03-24T04:12:44.269Z,13.26
2023-03-24T04:15:59.787Z,13.25
2023-03-24T04:18:50.114Z,13.47
2023-03-24T04:21:33.518Z,13.48
2023-03-24T04:24:27.068Z,13.54
2023-03-24T04:27:03.016Z,13.57
2023-03-24T04:29:53.044Z,13.47
2023-03-24T04:32:41.610Z,13.45
2023-03-24T04:35:12.788Z,13.43
2023-03-24T04:38:13.134Z,13.43
2023-03-24T04:40:42.021Z,13.46
2023-03-24T04:43:14.015Z,13.33
2023-03-24T04:45:41.888Z,13.26
2023-03-24T04:48:33.511Z,13.08
2023-03-24T04:51:10.591Z,13.02
2023-03-24T04:53:56.113Z,13.14
2023-03-24T04:56:33.094Z,13.27
2023-03-24T04:59:15.607Z,13.67
2023-03-24T05:01:49.822Z,14.07
2023-03-24T05:04:37.441Z,14.12
2023-03-24T05:07:21.455Z,14.00
2023-03-24T05:09:52.256Z,14.16
2023-03-24T05:12:19.724Z,14.47
2023-03-24T05:15:06.980Z,14.92
2023-03-24T05:17:35.729Z,15.01
2023-03-24T05:20:07.760Z,15.26
2023-03-24T05:22:39.145Z,15.26
2023-03-24T05:25:07.222Z,15.28
2023-03-24T05:27:34.758Z,15.18
2023-03-24T05:30:13.306Z,15.10
2023-03-24T05:32:41.622Z,14.98
2023-03-24T05:35:09.302Z,14.94
2023-03-24T05:37:36.710Z,14.82
2023-03-24T05:40:05.093Z,14.60
2023-03-24T05:42:42.710Z,14.25
2023-03-24T05:45:12.475Z,13.80
2023-03-24T05:47:40.983Z,13.44
2023-03-24T05:50:08.882Z,13.25
2023-03-24T05:52:36.823Z,13.11
2023-03-24T05:55:33.378Z,12.94
2023-03-24T05:58:11.711Z,12.96
2023-03-24T06:00:48.759Z,12.85
2023-03-24T06:03:25.550Z,12.77
2023-03-24T06:06:03.677Z,12.63
2023-03-24T06:08:33.847Z,12.67
2023-03-24T06:11:05.034Z,12.66
2023-03-24T06:13:38.544Z,12.65
2023-03-24T06:16:06.758Z,12.59
2023-03-24T06:18:42.766Z,12.50
2023-03-24T06:21:31.839Z,12.45
2023-03-24T06:24:00.901Z,12.35
2023-03-24T06:26:31.218Z,12.27
2023-03-24T06:29:00.550Z,12.24
2023-03-24T06:31:32.818Z,12.09
2023-03-24T06:34:00.464Z,11.99
2023-03-24T06:36:27.996Z,11.99
2023-03-24T06:38:56.282Z,12.09
2023-03-24T06:41:24.806Z,12.03
2023-03-24T06:43:57.426Z,11.87
2023-03-24T06:46:25.248Z,11.84
2023-03-24T06:48:52.752Z,11.80
2023-03-24T06:51:20.865Z,11.81
2023-03-24T06:53:48.389Z,11.77
2023-03-24T06:56:18.151Z,11.74
2023-03-24T06:58:51.640Z,11.70
2023-03-24T07:01:45.486Z,11.72
2023-03-24T07:04:25.560Z,11.66
2023-03-24T07:07:25.834Z,11.67
2023-03-24T07:09:55.065Z,11.69
2023-03-24T07:12:22.470Z,11.72
2023-03-24T07:14:50.277Z,11.68
2023-03-24T07:17:17.668Z,11.64
2023-03-24T07:20:08.435Z,11.51
2023-03-24T07:22:41.960Z,11.37
2023-03-24T07:25:33.593Z,11.38
2023-03-24T07:28:11.539Z,11.38
2023-03-24T07:30:41.016Z,11.43
2023-03-24T07:33:12.322Z,11.43
2023-03-24T07:35:41.971Z,11.48
2023-03-24T07:38:12.976Z,11.61
2023-03-24T07:40:40.746Z,11.68
2023-03-24T07:43:08.721Z,11.60
2023-03-24T07:45:47.283Z,11.72
2023-03-24T07:48:15.504Z,11.80
2023-03-24T07:50:43.090Z,11.70
2023-03-24T07:53:39.477Z,11.73
2023-03-24T07:56:07.908Z,11.71
2023-03-24T07:58:40.094Z,11.68
2023-03-24T08:01:27.884Z,11.74
2023-03-24T08:03:58.466Z,11.71
2023-03-24T08:06:46.551Z,11.68
2023-03-24T08:09:14.746Z,11.73
2023-03-24T08:11:42.190Z,11.76
2023-03-24T08:14:09.600Z,11.68
2023-03-24T08:16:39.014Z,11.71
2023-03-24T08:19:06.483Z,11.74
2023-03-24T08:21:34.175Z,11.72
2023-03-24T08:24:01.771Z,11.73
2023-03-24T08:26:29.162Z,11.76
2023-03-24T08:28:56.937Z,11.79
2023-03-24T08:31:24.327Z,11.77
2023-03-24T08:33:53.635Z,11.80
2023-03-24T08:36:21.597Z,11.83
2023-03-24T08:38:51.680Z,11.90
2023-03-24T08:41:19.001Z,11.90
2023-03-24T08:43:46.337Z,11.92
2023-03-24T08:46:15.338Z,11.90
2023-03-24T08:48:43.846Z,11.99
2023-03-24T08:51:13.234Z,12.05
2023-03-24T08:53:40.646Z,12.18
2023-03-24T08:56:08.328Z,12.13
2023-03-24T08:58:35.856Z,12.19
2023-03-24T09:01:03.378Z,12.25
2023-03-24T09:03:32.021Z,12.30
2023-03-24T09:05:59.661Z,12.38
2023-03-24T09:08:27.417Z,12.38
2023-03-24T09:10:54.800Z,12.53
2023-03-24T09:13:22.253Z,12.52
2023-03-24T09:15:51.600Z,12.52
2023-03-24T09:18:21.062Z,12.61
2023-03-24T09:20:49.326Z,12.77
2023-03-24T09:23:17.572Z,12.85
2023-03-24T09:25:45.245Z,12.93
2023-03-24T09:28:14.594Z,12.97
2023-03-24T09:30:42.334Z,13.04
2023-03-24T09:33:09.726Z,12.98
2023-03-24T09:35:37.133Z,12.92
2023-03-24T09:38:04.547Z,12.95
2023-03-24T09:40:36.452Z,12.94
2023-03-24T09:43:42.782Z,12.97
2023-03-24T09:46:20.020Z,12.99
2023-03-24T09:48:53.713Z,13.02
2023-03-24T09:51:28.211Z,13.00
2023-03-24T09:54:07.812Z,13.05
2023-03-24T09:56:38.379Z,13.15
2023-03-24T09:59:19.859Z,13.22
2023-03-24T10:01:48.109Z,13.27
2023-03-24T10:04:19.059Z,13.37
2023-03-24T10:06:48.439Z,13.45
2023-03-24T10:09:37.008Z,13.54
2023-03-24T10:12:22.445Z,13.75
2023-03-24T10:15:30.955Z,13.84
2023-03-24T10:18:19.817Z,14.15
2023-03-24T10:21:06.463Z,14.45
2023-03-24T10:24:02.362Z,14.75
2023-03-24T10:26:40.665Z,14.64
2023-03-24T10:29:20.219Z,14.53
2023-03-24T10:31:53.481Z,14.84
2023-03-24T10:34:22.536Z,14.93
2023-03-24T10:36:52.268Z,14.99
2023-03-24T10:39:24.082Z,14.99
2023-03-24T10:41:55.203Z,15.12
2023-03-24T10:44:23.238Z,14.55
2023-03-24T10:46:54.344Z,14.60
2023-03-24T10:49:23.680Z,14.59
2023-03-24T10:51:54.040Z,14.63
2023-03-24T10:54:26.354Z,14.60
2023-03-24T10:57:05.603Z,14.59
2023-03-24T10:59:36.844Z,14.60
2023-03-24T11:02:10.287Z,14.67
2023-03-24T11:04:39.360Z,14.83
2023-03-24T11:07:19.075Z,14.86
2023-03-24T11:09:48.588Z,15.08
2023-03-24T11:12:25.690Z,15.16
2023-03-24T11:15:07.562Z,15.19
2023-03-24T11:17:47.011Z,15.19
2023-03-24T11:20:30.258Z,15.27
2023-03-24T11:23:01.609Z,15.41
2023-03-24T11:25:33.777Z,15.64
2023-03-24T11:28:05.451Z,15.74
2023-03-24T11:30:51.715Z,15.97
2023-03-24T11:33:35.507Z,16.11
2023-03-24T11:36:36.093Z,16.11
2023-03-24T11:39:10.992Z,16.12
2023-03-24T11:41:45.562Z,16.20
2023-03-24T11:44:24.424Z,16.33
2023-03-24T11:47:01.240Z,16.41
2023-03-24T11:49:31.978Z,16.63
2023-03-24T11:51:59.606Z,16.94
2023-03-24T11:54:34.101Z,16.89
2023-03-24T11:57:05.721Z,16.74
2023-03-24T12:00:04.818Z,16.50
2023-03-24T12:03:04.333Z,16.21
2023-03-24T12:05:33.902Z,16.39
2023-03-24T12:08:29.268Z,16.25
2023-03-24T12:10:59.406Z,16.13
2023-03-24T12:13:33.677Z,15.94
2023-03-24T12:16:28.732Z,15.29
2023-03-24T12:19:11.262Z,14.51
2023-03-24T12:21:45.303Z,14.13
2023-03-24T12:24:31.141Z,13.60
2023-03-24T12:27:01.705Z,13.32
2023-03-24T12:30:06.733Z,13.21
2023-03-24T12:32:51.214Z,13.29
2023-03-24T12:35:49.164Z,13.54
2023-03-24T12:38:29.559Z,13.82
2023-03-24T12:41:34.282Z,13.95
2023-03-24T12:44:39.511Z,14.09
2023-03-24T12:47:28.110Z,14.19
2023-03-24T12:50:31.712Z,14.30
2023-03-24T12:53:41.600Z,14.31
2023-03-24T12:56:40.610Z,14.30
2023-03-24T12:59:54.536Z,14.32
2023-03-24T13:02:33.545Z,14.39
2023-03-24T13:05:07.442Z,14.46
2023-03-24T13:07:43.767Z,14.57
2023-03-24T13:10:42.112Z,14.65
2023-03-24T13:13:22.505Z,14.67
2023-03-24T13:16:07.115Z,14.70
2023-03-24T13:18:41.558Z,14.75
2023-03-24T13:21:18.155Z,14.80
2023-03-24T13:23:54.854Z,14.77
2023-03-24T13:26:38.981Z,14.74
2023-03-24T13:29:26.761Z,14.63
2023-03-24T13:31:58.026Z,14.50
2023-03-24T13:34:38.825Z,13.84
2023-03-24T13:37:13.152Z,13.40
2023-03-24T13:39:40.715Z,13.10
2023-03-24T13:42:20.715Z,12.78
2023-03-24T13:44:49.635Z,12.53
2023-03-24T13:47:17.815Z,12.39
2023-03-24T13:50:01.704Z,12.33
2023-03-24T13:52:32.646Z,12.29
2023-03-24T13:55:02.651Z,12.24
2023-03-24T13:57:30.789Z,12.24
2023-03-24T14:00:12.144Z,12.23
2023-03-24T14:02:55.348Z,12.11
2023-03-24T14:05:22.795Z,11.97
2023-03-24T14:08:11.584Z,11.70
2023-03-24T14:10:38.879Z,11.53
2023-03-24T14:13:20.784Z,11.51
2023-03-24T14:15:58.007Z,11.47
2023-03-24T14:18:25.896Z,11.47
2023-03-24T14:20:57.925Z,11.48
2023-03-24T14:23:46.948Z,11.32
2023-03-24T14:26:26.287Z,11.22
2023-03-24T14:28:54.787Z,11.13
2023-03-24T14:31:24.611Z,10.99
2023-03-24T14:33:54.950Z,10.79
2023-03-24T14:36:32.696Z,10.67
2023-03-24T14:39:31.006Z,10.52
2023-03-24T14:41:59.263Z,10.41
2023-03-24T14:44:49.516Z,10.35
2023-03-24T14:47:37.160Z,10.32
2023-03-24T14:50:22.293Z,10.31
2023-03-24T14:52:54.039Z,10.33
2023-03-24T14:55:22.084Z,10.40
2023-03-24T14:58:04.399Z,10.48
2023-03-24T15:01:03.917Z,10.54
2023-03-24T15:03:49.802Z,10.57
2023-03-24T15:06:19.395Z,10.51
2023-03-24T15:08:54.373Z,10.47
2023-03-24T15:11:28.729Z,10.38
2023-03-24T15:14:00.436Z,10.38
2023-03-24T15:16:29.552Z,10.36
2023-03-24T15:19:30.649Z,10.33
2023-03-24T15:22:00.799Z,10.44
2023-03-24T15:24:36.448Z,10.40
2023-03-24T15:27:06.994Z,10.33
2023-03-24T15:29:42.560Z,10.32
2023-03-24T15:32:19.240Z,10.42
2023-03-24T15:34:53.784Z,10.48
2023-03-24T15:37:24.730Z,10.45
2023-03-24T15:39:59.220Z,10.21
2023-03-24T15:42:33.454Z,10.13
2023-03-24T15:45:11.515Z,10.04
2023-03-24T15:47:41.921Z,9.96
2023-03-24T15:50:32.432Z,9.92
2023-03-24T15:53:20.572Z,9.95
2023-03-24T15:55:47.951Z,9.94
2023-03-24T15:58:28.388Z,9.95
2023-03-24T16:01:00.915Z,9.96
2023-03-24T16:03:30.116Z,10.04
2023-03-24T16:05:58.152Z,10.09
2023-03-24T16:08:28.657Z,10.12
2023-03-24T16:11:10.924Z,10.16
2023-03-24T16:13:44.386Z,10.21
2023-03-24T16:16:14.982Z,10.31
2023-03-24T16:18:45.985Z,10.35
2023-03-24T16:21:22.104Z,10.37
2023-03-24T16:23:50.961Z,10.47
2023-03-24T16:26:19.764Z,10.65
2023-03-24T16:28:50.074Z,10.71
2023-03-24T16:31:30.734Z,10.64
2023-03-24T16:33:59.317Z,10.73
2023-03-24T16:36:27.222Z,10.85
2023-03-24T16:38:56.609Z,10.85
2023-03-24T16:41:24.177Z,10.83
2023-03-24T16:43:53.096Z,10.70
2023-03-24T16:46:26.635Z,10.74
2023-03-24T16:48:54.595Z,10.52
2023-03-24T16:51:22.370Z,10.47
2023-03-24T16:53:49.791Z,10.46
2023-03-24T16:56:19.536Z,10.54
2023-03-24T16:58:48.084Z,10.65
2023-03-24T17:01:33.279Z,10.64
2023-03-24T17:04:03.570Z,10.73
2023-03-24T17:06:32.771Z,10.83
2023-03-24T17:09:00.643Z,10.89
2023-03-24T17:11:33.020Z,11.02
2023-03-24T17:14:04.895Z,10.97
2023-03-24T17:16:36.505Z,10.94
2023-03-24T17:19:05.256Z,10.90
2023-03-24T17:21:34.722Z,10.87
2023-03-24T17:24:02.446Z,10.80
2023-03-24T17:26:31.854Z,10.89
2023-03-24T17:28:59.467Z,10.78
2023-03-24T17:31:27.357Z,10.74
2023-03-24T17:33:54.786Z,10.65
2023-03-24T17:36:22.082Z,10.71
2023-03-24T17:38:49.415Z,10.59
2023-03-24T17:41:16.912Z,10.62
2023-03-24T17:43:46.728Z,10.63
2023-03-24T17:46:14.290Z,10.62
2023-03-24T17:48:43.673Z,10.43
2023-03-24T17:51:12.859Z,10.48
2023-03-24T17:53:40.135Z,10.43
2023-03-24T17:56:07.907Z,10.38
2023-03-24T17:58:36.592Z,10.36
2023-03-24T18:01:08.863Z,10.32
2023-03-24T18:03:38.151Z,10.26
2023-03-24T18:06:07.691Z,10.23
2023-03-24T18:08:36.151Z,10.35
2023-03-24T18:11:11.624Z,10.27
2023-03-24T18:13:39.057Z,10.32
2023-03-24T18:16:19.921Z,10.23
2023-03-24T18:18:50.001Z,10.17
2023-03-24T18:21:18.447Z,10.07
2023-03-24T18:23:46.718Z,10.12
2023-03-24T18:26:15.018Z,10.13
2023-03-24T18:28:42.847Z,10.07
2023-03-24T18:31:15.790Z,9.96
2023-03-24T18:33:46.018Z,9.98
2023-03-24T18:36:16.579Z,9.98
2023-03-24T18:38:44.390Z,9.90
2023-03-24T18:41:16.795Z,10.03
2023-03-24T18:43:47.589Z,10.06
2023-03-24T18:46:15.776Z,10.24
2023-03-24T18:48:43.543Z,10.14
2023-03-24T18:51:11.679Z,10.18
2023-03-24T18:53:39.142Z,10.15
2023-03-24T18:56:07.148Z,10.25
2023-03-24T18:58:35.280Z,10.28
2023-03-24T19:01:11.117Z,10.31
2023-03-24T19:03:40.847Z,10.22
2023-03-24T19:06:10.674Z,10.23
2023-03-24T19:08:41.043Z,10.23
2023-03-24T19:11:09.413Z,10.36
2023-03-24T19:13:37.372Z,10.26
2023-03-24T19:16:05.853Z,10.27
2023-03-24T19:18:33.311Z,10.16
2023-03-24T19:21:02.059Z,10.12
2023-03-24T19:23:30.317Z,10.16
2023-03-24T19:25:57.818Z,10.12
2023-03-24T19:28:29.078Z,10.02
2023-03-24T19:30:57.361Z,10.02
2023-03-24T19:33:25.524Z,10.03
2023-03-24T19:35:53.525Z,10.14
2023-03-24T19:38:23.933Z,10.02
2023-03-24T19:40:52.765Z,10.29
2023-03-24T19:43:21.163Z,10.07
2023-03-24T19:45:52.724Z,10.04
2023-03-24T19:48:20.292Z,10.08
2023-03-24T19:50:50.518Z,10.11
2023-03-24T19:53:18.012Z,10.06
2023-03-24T19:55:45.582Z,10.19
2023-03-24T19:58:13.143Z,10.16
2023-03-24T20:00:40.583Z,10.10
2023-03-24T20:03:08.678Z,10.08
2023-03-24T20:05:36.626Z,10.07
2023-03-24T20:08:04.246Z,9.94
2023-03-24T20:10:31.606Z,10.15
2023-03-24T20:12:58.935Z,10.09
2023-03-24T20:15:26.228Z,10.02
2023-03-24T20:17:53.580Z,9.94
2023-03-24T20:20:21.641Z,9.94
2023-03-24T20:22:49.112Z,9.86
2023-03-24T20:25:18.108Z,10.06
2023-03-24T20:27:46.865Z,10.12
2023-03-24T20:30:16.993Z,10.05
2023-03-24T20:32:44.451Z,10.05
2023-03-24T20:35:12.337Z,10.00
2023-03-24T20:37:39.719Z,9.98
2023-03-24T20:40:09.508Z,9.92
2023-03-24T20:42:37.773Z,10.15
2023-03-24T20:45:06.625Z,10.03
2023-03-24T20:47:34.443Z,10.07
2023-03-24T20:50:02.505Z,10.11
2023-03-24T20:52:30.032Z,10.14
2023-03-24T20:54:57.604Z,10.04
2023-03-24T20:57:26.265Z,9.93
2023-03-24T20:59:53.736Z,9.84
2023-03-24T21:02:21.133Z,9.90
2023-03-24T21:04:48.521Z,9.97
2023-03-24T21:07:15.975Z,9.88
2023-03-24T21:09:43.285Z,9.84
2023-03-24T21:12:10.623Z,9.81
2023-03-24T21:14:38.055Z,9.70
2023-03-24T21:17:05.888Z,9.76
2023-03-24T21:19:33.317Z,9.78
2023-03-24T21:22:03.037Z,9.72
2023-03-24T21:24:30.392Z,9.80
2023-03-24T21:27:00.115Z,9.83
2023-03-24T21:29:27.503Z,9.78
2023-03-24T21:31:55.025Z,9.80
2023-03-24T21:34:22.432Z,9.78
2023-03-24T21:36:53.525Z,9.78
2023-03-24T21:39:20.890Z,10.08
2023-03-24T21:41:48.316Z,10.12
2023-03-24T21:44:15.768Z,9.93
2023-03-24T21:46:44.962Z,9.90
2023-03-24T21:49:12.829Z,9.86
2023-03-24T21:51:42.739Z,9.79
2023-03-24T21:54:10.150Z,9.95
2023-03-24T21:56:38.083Z,9.91
2023-03-24T21:59:05.676Z,10.03
2023-03-24T22:01:35.741Z,10.01
2023-03-24T22:04:03.439Z,9.91
2023-03-24T22:06:37.370Z,9.94
2023-03-24T22:09:06.712Z,9.84
2023-03-24T22:11:35.168Z,9.88
2023-03-24T22:14:03.600Z,9.92
2023-03-24T22:16:32.945Z,9.94
2023-03-24T22:19:01.560Z,10.00
2023-03-24T22:21:29.034Z,10.04
2023-03-24T22:23:56.442Z,9.95
2023-03-24T22:26:23.890Z,9.90
2023-03-24T22:28:51.189Z,9.86
2023-03-24T22:31:18.736Z,9.86
2023-03-24T22:33:47.976Z,9.83
2023-03-24T22:36:15.837Z,9.80
2023-03-24T22:38:43.172Z,9.99
2023-03-24T22:41:12.683Z,10.08
2023-03-24T22:43:41.518Z,10.15
2023-03-24T22:46:10.065Z,10.16
2023-03-24T22:48:39.148Z,10.25
2023-03-24T22:51:07.003Z,10.18
2023-03-24T22:53:34.513Z,10.03
2023-03-24T22:56:02.026Z,9.98
2023-03-24T22:58:29.344Z,10.05
2023-03-24T23:00:57.705Z,10.02
2023-03-24T23:03:25.388Z,10.04
2023-03-24T23:05:53.048Z,10.00
2023-03-24T23:08:20.718Z,9.83
2023-03-24T23:10:48.299Z,9.55
2023-03-24T23:13:17.028Z,9.28
2023-03-24T23:15:44.778Z,9.11
2023-03-24T23:18:12.193Z,8.90
2023-03-24T23:20:40.663Z,8.63
2023-03-24T23:23:09.041Z,8.47
2023-03-24T23:25:44.557Z,8.42
2023-03-24T23:28:13.231Z,8.38
2023-03-24T23:30:42.129Z,8.38
2023-03-24T23:33:14.630Z,8.23
2023-03-24T23:35:42.468Z,8.14
2023-03-24T23:38:10.096Z,8.05
2023-03-24T23:40:37.447Z,8.00
2023-03-24T23:43:04.870Z,7.87
2023-03-24T23:45:32.239Z,7.79
2023-03-24T23:47:59.637Z,7.82
2023-03-24T23:50:28.094Z,7.79
2023-03-24T23:52:56.415Z,7.71
2023-03-24T23:55:25.834Z,7.69
2023-03-24T23:57:54.753Z,7.71
